Time;durP1;ratioP1;P1;durP2;ratioP2;P2;SDS_P1;SDS_P2;PMS_P1;PMS_P2;Temp;Humidity;BMP_temperature;BMP_pressure;BME280_temperature;BME280_humidity;BME280_pressure;Samples;Min_cycle;Max_cycle;Signal;HPM_P1;HPM_P2
2022/09/12 00:00:42;;;;;;;4.22;3.83;;;;;;;16.60;67.28;94706.44;5010035;28;20707;-66
2022/09/12 00:03:08;;;;;;;4.10;3.80;;;;;;;16.50;67.32;94709.47;5014844;28;20222;-71
2022/09/12 00:05:39;;;;;;;4.88;3.80;;;;;;;16.37;67.88;94712.84;5009771;28;20680;-70
2022/09/12 00:08:04;;;;;;;3.88;3.50;;;;;;;16.36;67.49;94726.31;5001731;28;20215;-66
2022/09/12 00:10:30;;;;;;;3.90;3.60;;;;;;;16.31;67.66;94717.09;5009418;28;20296;-72
2022/09/12 00:12:55;;;;;;;4.53;4.15;;;;;;;16.36;67.59;94724.50;5003516;28;20230;-66
2022/09/12 00:15:21;;;;;;;4.55;4.15;;;;;;;16.34;67.94;94723.03;5009534;28;20207;-66
2022/09/12 00:17:46;;;;;;;4.80;4.50;;;;;;;16.26;67.94;94724.81;5003324;28;20207;-70
2022/09/12 00:20:12;;;;;;;4.88;4.30;;;;;;;16.29;68.12;94727.09;5002742;28;20227;-71
2022/09/12 00:22:37;;;;;;;5.75;5.20;;;;;;;16.36;67.83;94726.31;5010151;28;20234;-67
2022/09/12 00:25:04;;;;;;;4.78;4.38;;;;;;;16.21;67.95;94727.25;5001740;28;20234;-66
2022/09/12 00:27:30;;;;;;;4.60;4.20;;;;;;;16.13;67.82;94727.38;5004213;28;20304;-70
2022/09/12 00:29:56;;;;;;;4.32;4.03;;;;;;;16.12;67.96;94741.66;5010470;28;20238;-70
2022/09/12 00:32:21;;;;;;;5.07;4.70;;;;;;;16.21;67.74;94743.16;5007461;28;20356;-71
2022/09/12 00:34:47;;;;;;;4.45;4.03;;;;;;;16.30;67.00;94738.50;5008637;28;20223;-72
2022/09/12 00:37:12;;;;;;;4.90;4.50;;;;;;;16.28;66.84;94729.94;4996752;28;20265;-72
2022/09/12 00:39:38;;;;;;;6.10;4.38;;;;;;;16.22;66.85;94726.22;5009994;28;20257;-71
2022/09/12 00:42:04;;;;;;;4.07;3.78;;;;;;;16.15;67.21;94730.66;5008919;28;20211;-67
2022/09/12 00:44:29;;;;;;;4.75;4.40;;;;;;;16.13;67.04;94730.03;5002121;28;20207;-72
2022/09/12 00:47:33;;;;;;;4.57;4.18;;;;;;;16.08;66.87;94737.75;5009304;28;20230;-65
2022/09/12 00:50:19;;;;;;;4.25;4.00;;;;;;;16.09;67.04;94731.41;4957463;28;20293;-69
2022/09/12 00:52:56;;;;;;;4.78;4.47;;;;;;;15.92;67.42;94730.88;4970346;28;20279;-70
2022/09/12 00:55:24;;;;;;;4.05;3.85;;;;;;;15.92;67.67;94725.59;4964075;28;20703;-69
2022/09/12 00:58:00;;;;;;;5.03;4.25;;;;;;;16.00;67.45;94729.94;4970559;28;20224;-71
2022/09/12 01:00:27;;;;;;;4.72;4.28;;;;;;;16.03;67.08;94726.91;4955025;28;20223;-70
2022/09/12 01:02:58;;;;;;;4.60;4.10;;;;;;;15.93;66.56;94719.28;4952309;28;20219;-68
2022/09/12 01:05:27;;;;;;;3.90;3.60;;;;;;;15.94;66.69;94728.06;4948857;28;20345;-69
2022/09/12 01:07:55;;;;;;;4.32;3.95;;;;;;;15.95;66.70;94716.44;4948727;28;20291;-68
2022/09/12 01:10:21;;;;;;;4.22;3.92;;;;;;;15.93;66.75;94715.78;4953204;28;20302;-70
2022/09/12 01:12:47;;;;;;;5.20;4.68;;;;;;;15.89;66.26;94710.06;4959471;28;20224;-71
2022/09/12 01:15:13;;;;;;;4.45;4.05;;;;;;;15.86;66.46;94721.88;4954190;28;20211;-66
2022/09/12 01:17:59;;;;;;;4.13;3.83;;;;;;;15.84;66.44;94713.28;4959924;28;20647;-66
2022/09/12 01:20:53;;;;;;;4.40;4.05;;;;;;;15.75;66.77;94714.44;4948403;28;20365;-71
2022/09/12 01:23:38;;;;;;;4.03;3.72;;;;;;;15.70;66.87;94721.34;4950558;28;20277;-70
2022/09/12 01:26:31;;;;;;;4.50;4.10;;;;;;;15.72;66.89;94706.06;4967233;28;20236;-65
2022/09/12 01:29:16;;;;;;;4.28;3.50;;;;;;;15.67;66.47;94709.25;5007260;28;20250;-67
2022/09/12 01:32:11;;;;;;;3.75;3.45;;;;;;;15.65;66.80;94727.97;5005887;28;20223;-72
2022/09/12 01:34:42;;;;;;;3.33;3.13;;;;;;;15.56;66.66;94720.38;5003378;28;20285;-70
2022/09/12 01:37:20;;;;;;;3.58;3.30;;;;;;;15.44;66.82;94715.53;4996869;28;20234;-65
2022/09/12 01:39:55;;;;;;;4.70;3.60;;;;;;;15.50;66.79;94719.25;5008135;28;20230;-65
2022/09/12 01:42:47;;;;;;;3.65;3.30;;;;;;;15.56;66.38;94720.38;5019100;28;20684;-68
2022/09/12 01:45:27;;;;;;;3.22;3.03;;;;;;;15.41;66.88;94715.94;4945687;28;20209;-68
2022/09/12 01:48:04;;;;;;;3.63;3.33;;;;;;;15.39;66.49;94717.13;4951552;28;20596;-70
2022/09/12 01:50:37;;;;;;;3.13;2.92;;;;;;;15.40;66.58;94709.00;4956528;28;20227;-71
2022/09/12 01:53:08;;;;;;;3.42;2.90;;;;;;;15.31;66.87;94711.94;4951394;28;20228;-69
2022/09/12 01:55:36;;;;;;;3.35;3.10;;;;;;;15.37;66.79;94701.44;4952027;28;20380;-70
2022/09/12 01:58:28;;;;;;;3.30;2.80;;;;;;;15.41;66.30;94701.88;4949612;28;20228;-70
2022/09/12 02:01:14;;;;;;;3.25;2.95;;;;;;;15.36;66.74;94699.78;4944509;28;20320;-69
2022/09/12 02:04:10;;;;;;;3.33;3.03;;;;;;;15.31;66.65;94702.16;4952788;28;20228;-69
2022/09/12 02:06:51;;;;;;;3.25;3.05;;;;;;;15.29;66.60;94703.38;4944270;28;20240;-69
2022/09/12 02:09:28;;;;;;;3.60;3.10;;;;;;;15.35;66.53;94697.34;4952285;28;20250;-71
2022/09/12 02:11:59;;;;;;;3.40;3.10;;;;;;;15.28;66.55;94705.19;4957235;28;20203;-69
2022/09/12 02:14:29;;;;;;;3.58;3.30;;;;;;;15.20;66.85;94706.13;4955259;28;20232;-66
2022/09/12 02:17:03;;;;;;;3.35;3.13;;;;;;;15.24;66.87;94703.94;4950795;28;20327;-69
2022/09/12 02:19:36;;;;;;;3.53;3.20;;;;;;;15.19;67.07;94706.34;4955932;28;20315;-68
2022/09/12 02:22:03;;;;;;;3.63;3.33;;;;;;;15.22;66.33;94703.31;4970234;28;20258;-67
2022/09/12 02:24:38;;;;;;;3.35;3.08;;;;;;;15.17;66.51;94711.81;4997085;28;20322;-67
2022/09/12 02:27:36;;;;;;;3.55;3.22;;;;;;;15.16;66.41;94712.81;5001235;28;20257;-71
2022/09/12 02:30:04;;;;;;;3.47;3.20;;;;;;;15.11;66.73;94701.97;5005795;28;20226;-70
2022/09/12 02:32:59;;;;;;;5.40;3.45;;;;;;;15.19;66.02;94706.34;5005895;28;20208;-65
2022/09/12 02:35:46;;;;;;;3.25;2.95;;;;;;;15.10;66.07;94716.22;4997920;28;20233;-64
2022/09/12 02:38:23;;;;;;;3.85;3.00;;;;;;;15.12;65.83;94716.03;4996380;28;20235;-67
2022/09/12 02:40:49;;;;;;;2.95;2.75;;;;;;;15.07;66.44;94710.47;4998733;28;20630;-70
2022/09/12 02:43:14;;;;;;;2.75;2.45;;;;;;;15.14;65.78;94706.06;5005857;28;20234;-69
2022/09/12 02:45:40;;;;;;;2.85;2.65;;;;;;;15.05;66.13;94713.31;4998155;28;20258;-68
2022/09/12 02:48:17;;;;;;;3.72;2.90;;;;;;;15.05;65.90;94717.78;5002872;28;20226;-70
2022/09/12 02:50:43;;;;;;;2.58;2.38;;;;;;;15.02;66.06;94713.66;5002145;28;20203;-71
2022/09/12 02:53:10;;;;;;;3.25;2.58;;;;;;;14.97;66.13;94706.31;5011496;28;20226;-68
2022/09/12 02:55:38;;;;;;;3.85;2.67;;;;;;;14.95;66.41;94708.31;5012143;28;20234;-70
2022/09/12 02:58:07;;;;;;;2.92;2.72;;;;;;;15.00;66.24;94715.69;5015104;28;20223;-71
2022/09/12 03:00:50;;;;;;;2.55;2.35;;;;;;;14.97;66.00;94722.19;5009919;28;20230;-68
2022/09/12 03:03:48;;;;;;;2.60;2.40;;;;;;;14.97;65.94;94726.66;5000827;28;20211;-67
2022/09/12 03:06:19;;;;;;;3.30;2.42;;;;;;;14.93;65.95;94733.34;4999746;28;20282;-64
2022/09/12 03:08:44;;;;;;;2.72;2.50;;;;;;;14.89;66.16;94730.25;5008166;28;20199;-67
2022/09/12 03:11:48;;;;;;;2.40;2.20;;;;;;;14.93;66.04;94736.78;5010922;28;20234;-65
2022/09/12 03:14:46;;;;;;;2.85;2.28;;;;;;;14.96;65.73;94730.31;4971872;28;20274;-69
2022/09/12 03:17:29;;;;;;;3.20;2.70;;;;;;;14.97;65.77;94732.78;4955484;28;20228;-66
2022/09/12 03:20:04;;;;;;;4.30;2.90;;;;;;;14.87;66.14;94732.25;4971862;28;20224;-71
2022/09/12 03:22:29;;;;;;;4.72;2.92;;;;;;;14.85;66.22;94728.13;4967106;28;20234;-68
2022/09/12 03:25:19;;;;;;;2.95;2.75;;;;;;;14.83;66.30;94730.16;4954846;28;20227;-70
2022/09/12 03:27:55;;;;;;;4.43;2.97;;;;;;;14.78;66.56;94728.03;4969504;28;20239;-68
2022/09/12 03:30:21;;;;;;;4.50;3.05;;;;;;;14.80;66.32;94720.75;4972520;28;20641;-68
2022/09/12 03:32:49;;;;;;;4.03;2.65;;;;;;;14.79;66.63;94724.41;4958308;28;20216;-68
2022/09/12 03:35:16;;;;;;;3.30;3.00;;;;;;;14.71;66.71;94733.25;4967598;28;20228;-66
2022/09/12 03:37:42;;;;;;;4.82;3.20;;;;;;;14.84;65.94;94735.25;4979864;28;20262;-67
2022/09/12 03:40:09;;;;;;;3.25;3.00;;;;;;;14.84;66.05;94731.81;4969261;28;20257;-67
2022/09/12 03:42:34;;;;;;;4.20;3.00;;;;;;;14.76;66.45;94724.78;4955883;28;20227;-67
2022/09/12 03:45:00;;;;;;;3.05;2.85;;;;;;;14.76;66.86;94735.38;4973155;28;20665;-66
2022/09/12 03:47:26;;;;;;;3.38;2.95;;;;;;;14.71;66.59;94717.38;4955336;28;20232;-70
2022/09/12 03:49:51;;;;;;;3.92;2.92;;;;;;;14.71;66.76;94730.63;4956591;28;20235;-69
2022/09/12 03:52:17;;;;;;;4.00;3.00;;;;;;;14.64;67.17;94723.59;5002895;28;20306;-64
2022/09/12 03:54:43;;;;;;;2.90;2.67;;;;;;;14.72;66.83;94724.31;5009154;28;20309;-65
2022/09/12 03:57:08;;;;;;;6.10;2.95;;;;;;;14.73;66.74;94733.09;5011327;28;20210;-71
2022/09/12 03:59:34;;;;;;;3.58;3.25;;;;;;;14.63;67.01;94727.25;5010343;28;20270;-70
2022/09/12 04:01:59;;;;;;;2.88;2.67;;;;;;;14.61;67.12;94730.06;5007716;28;20246;-65
2022/09/12 04:04:25;;;;;;;3.45;3.10;;;;;;;14.68;67.06;94727.53;5004582;28;20234;-71
2022/09/12 04:06:50;;;;;;;2.65;2.45;;;;;;;14.64;66.93;94731.53;5002683;28;20245;-67
2022/09/12 04:09:15;;;;;;;7.53;4.20;;;;;;;14.64;66.95;94727.06;5009908;28;20211;-68
2022/09/12 04:11:41;;;;;;;3.67;3.38;;;;;;;14.71;66.94;94732.44;5006419;28;20199;-69
2022/09/12 04:14:06;;;;;;;3.25;2.95;;;;;;;14.69;66.74;94734.47;4998363;28;20266;-68
2022/09/12 04:16:32;;;;;;;3.63;2.75;;;;;;;14.73;66.83;94743.69;5009858;28;20276;-69
2022/09/12 04:18:57;;;;;;;3.42;2.85;;;;;;;14.78;66.52;94734.19;4996119;28;20224;-64
2022/09/12 04:21:23;;;;;;;3.38;3.15;;;;;;;14.72;66.63;94734.09;5001445;28;20392;-71
2022/09/12 04:23:51;;;;;;;3.20;2.83;;;;;;;14.75;66.62;94733.72;5016289;28;20410;-67
2022/09/12 04:26:20;;;;;;;4.68;4.28;;;;;;;14.79;66.56;94742.94;5005972;28;20231;-71
2022/09/12 04:28:46;;;;;;;4.10;3.80;;;;;;;14.81;66.44;94748.88;5007498;28;20282;-71
2022/09/12 04:31:16;;;;;;;3.47;3.25;;;;;;;14.86;66.41;94754.44;5000486;28;20613;-71
2022/09/12 04:33:46;;;;;;;4.13;3.78;;;;;;;14.85;66.32;94752.78;5009972;28;20223;-69
2022/09/12 04:36:15;;;;;;;3.75;3.50;;;;;;;14.80;66.63;94752.50;5009133;28;20742;-71
2022/09/12 04:38:43;;;;;;;5.03;4.22;;;;;;;14.84;66.77;94751.16;5008565;28;20210;-70
2022/09/12 04:41:20;;;;;;;4.47;3.72;;;;;;;14.93;66.02;94746.56;5006993;28;20227;-65
2022/09/12 04:43:47;;;;;;;4.78;4.38;;;;;;;14.89;66.12;94748.78;4990151;28;20381;-71
2022/09/12 04:46:15;;;;;;;5.28;4.07;;;;;;;15.03;65.71;94746.28;5009846;28;20230;-65
2022/09/12 04:48:42;;;;;;;4.53;4.15;;;;;;;15.00;65.61;94747.47;5009403;28;20230;-69
2022/09/12 04:51:10;;;;;;;4.55;4.13;;;;;;;15.02;65.73;94755.22;5021843;28;21221;-69
2022/09/12 04:53:37;;;;;;;4.47;4.07;;;;;;;14.98;66.06;94755.59;5009454;28;20210;-66
2022/09/12 04:56:10;;;;;;;5.07;4.53;;;;;;;14.94;66.37;94762.28;5006041;28;20255;-69
2022/09/12 04:58:36;;;;;;;4.95;4.55;;;;;;;14.92;66.56;94756.34;5009277;28;20223;-70
2022/09/12 05:01:06;;;;;;;4.88;4.47;;;;;;;15.04;66.21;94753.22;5022302;28;20244;-68
2022/09/12 05:03:32;;;;;;;4.72;4.32;;;;;;;15.00;66.07;94758.88;5000274;28;20301;-72
2022/09/12 05:06:03;;;;;;;5.97;4.13;;;;;;;15.04;66.08;94761.97;5010269;28;20211;-72
2022/09/12 05:08:29;;;;;;;5.03;4.63;;;;;;;15.11;65.92;94757.59;5005875;28;20246;-71
2022/09/12 05:10:54;;;;;;;4.80;4.30;;;;;;;15.19;65.40;94751.34;5002748;28;20236;-66
2022/09/12 05:13:20;;;;;;;4.88;4.40;;;;;;;15.22;65.81;94756.28;5009074;28;20233;-70
2022/09/12 05:15:57;;;;;;;5.30;4.55;;;;;;;15.29;64.92;94759.84;5009237;28;20463;-66
2022/09/12 05:18:22;;;;;;;4.57;4.18;;;;;;;15.39;64.34;94762.97;4997958;28;20226;-69
2022/09/12 05:20:48;;;;;;;4.25;3.85;;;;;;;15.41;63.90;94758.31;4996751;28;20273;-71
2022/09/12 05:23:13;;;;;;;4.63;3.85;;;;;;;15.50;63.66;94752.91;5007258;28;20227;-71
2022/09/12 05:25:38;;;;;;;6.93;4.03;;;;;;;15.57;63.68;94748.50;5007027;28;20247;-72
2022/09/12 05:28:04;;;;;;;4.75;3.95;;;;;;;15.52;63.95;94746.41;4998534;28;20227;-72
2022/09/12 05:30:29;;;;;;;4.38;3.97;;;;;;;15.52;63.55;94754.34;5005725;28;20680;-69
2022/09/12 05:32:55;;;;;;;5.78;3.85;;;;;;;15.49;63.47;94752.09;5007113;28;20211;-69
2022/09/12 05:35:20;;;;;;;4.60;4.05;;;;;;;15.51;63.36;94751.91;5008148;28;20242;-71
2022/09/12 05:37:46;;;;;;;5.80;4.25;;;;;;;15.52;63.60;94761.47;5005120;28;20229;-70
2022/09/12 05:40:16;;;;;;;4.70;4.30;;;;;;;15.51;63.57;94755.38;5004956;28;20567;-71
2022/09/12 05:42:41;;;;;;;6.07;5.15;;;;;;;15.53;63.66;94760.47;5007596;28;20791;-66
2022/09/12 05:45:07;;;;;;;4.68;4.03;;;;;;;15.71;63.14;94758.22;5005800;28;20203;-71
2022/09/12 05:47:33;;;;;;;5.10;3.92;;;;;;;15.80;62.66;94757.13;5001743;28;20215;-69
2022/09/12 05:49:58;;;;;;;4.32;3.92;;;;;;;15.90;62.01;94753.31;5008333;28;20260;-66
2022/09/12 05:52:24;;;;;;;4.40;4.00;;;;;;;15.96;62.43;94744.56;4999791;28;20231;-72
2022/09/12 05:54:49;;;;;;;7.15;4.65;;;;;;;16.10;62.04;94741.03;5005059;28;20700;-70
2022/09/12 05:57:15;;;;;;;5.05;4.55;;;;;;;16.20;61.40;94749.47;5005079;28;20203;-70
2022/09/12 05:59:40;;;;;;;6.43;4.38;;;;;;;16.36;60.48;94736.91;5006620;28;20208;-71
2022/09/12 06:02:08;;;;;;;7.03;4.35;;;;;;;16.50;59.22;94738.66;5008232;28;20218;-68
2022/09/12 06:04:33;;;;;;;6.53;4.43;;;;;;;16.65;58.67;94734.06;5004307;28;20215;-69
2022/09/12 06:06:58;;;;;;;4.60;4.22;;;;;;;16.79;58.10;94731.50;5007110;28;21065;-71
2022/09/12 06:09:24;;;;;;;4.55;4.15;;;;;;;16.87;58.28;94728.69;5006446;28;20251;-70
2022/09/12 06:11:50;;;;;;;4.97;4.55;;;;;;;17.06;57.78;94733.25;5013366;28;20203;-65
2022/09/12 06:14:16;;;;;;;5.25;3.97;;;;;;;17.23;57.44;94723.06;5010010;28;20914;-66
2022/09/12 06:16:42;;;;;;;5.05;4.35;;;;;;;17.26;57.41;94730.66;5007081;28;20215;-65
2022/09/12 06:19:14;;;;;;;5.07;4.68;;;;;;;17.32;57.42;94723.72;5001972;28;20230;-72
2022/09/12 06:21:40;;;;;;;6.05;4.25;;;;;;;17.14;57.02;94722.44;5007452;28;20223;-70
2022/09/12 06:24:08;;;;;;;4.78;3.80;;;;;;;17.19;56.89;94741.25;5006586;28;20309;-66
2022/09/12 06:26:34;;;;;;;5.25;4.75;;;;;;;17.10;57.28;94733.66;5009301;28;20746;-71
2022/09/12 06:29:00;;;;;;;4.75;4.35;;;;;;;16.82;57.65;94737.22;5005919;28;20286;-68
2022/09/12 06:31:37;;;;;;;4.78;4.40;;;;;;;16.72;57.98;94737.53;5002012;28;20245;-72
2022/09/12 06:34:05;;;;;;;4.30;4.00;;;;;;;16.76;58.11;94746.78;5017515;28;20229;-66
2022/09/12 06:36:35;;;;;;;5.00;4.60;;;;;;;16.63;58.60;94744.03;4996826;28;20249;-70
2022/09/12 06:39:05;;;;;;;4.72;4.43;;;;;;;16.64;59.02;94744.84;5020945;28;20606;-68
2022/09/12 06:41:31;;;;;;;5.80;4.40;;;;;;;16.73;59.40;94747.16;5003615;28;20305;-71
2022/09/12 06:43:57;;;;;;;4.57;4.28;;;;;;;16.88;59.14;94744.41;5008108;28;20223;-71
2022/09/12 06:46:24;;;;;;;4.65;4.32;;;;;;;17.02;58.71;94742.63;5006202;28;20300;-71
2022/09/12 06:48:49;;;;;;;4.55;4.07;;;;;;;17.18;57.99;94754.72;5005987;28;20226;-71
2022/09/12 06:51:17;;;;;;;4.47;4.13;;;;;;;17.24;57.71;94755.78;5006597;28;20207;-70
2022/09/12 06:53:44;;;;;;;4.35;4.05;;;;;;;17.19;57.34;94761.72;4996609;28;20211;-71
2022/09/12 06:56:12;;;;;;;4.15;3.83;;;;;;;17.09;57.49;94769.22;5005603;28;20318;-71
2022/09/12 06:58:38;;;;;;;4.40;4.03;;;;;;;17.24;57.51;94767.25;5002129;28;20230;-70
2022/09/12 07:01:20;;;;;;;4.72;4.38;;;;;;;17.24;57.15;94769.91;5006962;28;20253;-65
2022/09/12 07:04:03;;;;;;;4.05;3.75;;;;;;;17.37;56.92;94767.28;4999911;28;20227;-66
2022/09/12 07:06:34;;;;;;;4.95;4.20;;;;;;;17.44;57.19;94772.63;5001291;28;20254;-72
2022/09/12 07:09:01;;;;;;;5.63;4.47;;;;;;;17.48;57.09;94776.53;5007771;28;20254;-66
2022/09/12 07:11:30;;;;;;;4.90;4.38;;;;;;;17.49;56.94;94772.84;5003406;28;20223;-71
2022/09/12 07:13:57;;;;;;;5.18;4.78;;;;;;;17.57;56.93;94772.66;5009892;28;20959;-69
2022/09/12 07:16:23;;;;;;;6.47;4.60;;;;;;;17.75;56.59;94777.41;5002924;28;20215;-70
2022/09/12 07:18:53;;;;;;;5.63;5.10;;;;;;;17.99;56.18;94775.19;5004605;28;20242;-71
2022/09/12 07:21:19;;;;;;;5.57;5.07;;;;;;;18.05;55.63;94777.88;5004824;28;20214;-67
2022/09/12 07:23:45;;;;;;;4.57;4.28;;;;;;;18.19;55.18;94770.72;5008461;28;20199;-72
2022/09/12 07:26:12;;;;;;;4.47;4.00;;;;;;;18.17;53.74;94782.56;5005839;28;20258;-72
2022/09/12 07:28:38;;;;;;;4.70;4.30;;;;;;;18.02;53.49;94772.16;5011051;28;20235;-71
2022/09/12 07:31:06;;;;;;;4.20;3.90;;;;;;;17.97;53.55;94778.06;5001337;28;20298;-71
2022/09/12 07:33:32;;;;;;;4.70;4.30;;;;;;;17.94;53.26;94777.66;5006049;28;20215;-69
2022/09/12 07:36:02;;;;;;;4.60;4.30;;;;;;;17.84;54.12;94767.41;5011404;28;20230;-71
2022/09/12 07:38:28;;;;;;;4.45;4.15;;;;;;;18.14;52.25;94783.81;5003775;28;20231;-66
2022/09/12 07:40:54;;;;;;;5.07;4.63;;;;;;;18.29;51.34;94767.66;5005900;28;20237;-66
2022/09/12 07:43:19;;;;;;;5.97;5.53;;;;;;;18.37;51.33;94775.41;5010346;28;20572;-71
2022/09/12 07:45:45;;;;;;;5.72;5.32;;;;;;;18.36;51.97;94765.78;4996404;28;20209;-66
2022/09/12 07:48:10;;;;;;;5.53;5.13;;;;;;;18.24;52.19;94768.25;5000045;28;20217;-70
2022/09/12 07:50:36;;;;;;;5.28;4.88;;;;;;;18.22;51.93;94764.97;5002913;28;20387;-70
2022/09/12 07:53:02;;;;;;;4.70;4.40;;;;;;;18.10;51.60;94777.28;5010933;28;20229;-71
2022/09/12 07:55:29;;;;;;;5.00;4.70;;;;;;;18.13;51.61;94765.41;5010644;28;20229;-71
2022/09/12 07:57:54;;;;;;;5.65;5.15;;;;;;;18.15;51.42;94768.66;5009505;28;20228;-71
2022/09/12 08:00:21;;;;;;;5.50;5.10;;;;;;;18.38;51.09;94765.59;5012169;28;20246;-67
2022/09/12 08:02:51;;;;;;;5.10;4.70;;;;;;;18.55;50.04;94772.13;5011611;28;20219;-71
2022/09/12 08:05:17;;;;;;;5.43;4.93;;;;;;;18.46;49.98;94776.84;5008312;28;20716;-66
2022/09/12 08:07:42;;;;;;;4.63;4.32;;;;;;;18.54;49.46;94780.31;5010514;28;20273;-72
2022/09/12 08:10:08;;;;;;;4.95;4.50;;;;;;;18.64;48.94;94772.72;5006748;28;20224;-70
2022/09/12 08:12:33;;;;;;;5.03;4.50;;;;;;;18.63;49.28;94773.75;5009297;28;20206;-68
2022/09/12 08:14:59;;;;;;;4.80;4.40;;;;;;;18.56;49.34;94773.75;5007928;28;20229;-72
2022/09/12 08:17:25;;;;;;;3.97;3.60;;;;;;;18.59;49.21;94780.53;5010156;28;20735;-71
2022/09/12 08:19:51;;;;;;;4.93;3.92;;;;;;;18.63;49.12;94769.25;4994824;28;20223;-71
2022/09/12 08:22:19;;;;;;;4.65;4.25;;;;;;;18.57;49.94;94766.59;5003331;28;20234;-69
2022/09/12 08:24:44;;;;;;;3.88;3.58;;;;;;;18.56;50.01;94767.63;5006645;28;20749;-72
2022/09/12 08:27:09;;;;;;;4.55;4.15;;;;;;;18.71;50.03;94773.50;5017637;28;20318;-71
2022/09/12 08:29:35;;;;;;;3.85;3.55;;;;;;;18.90;49.32;94758.56;5010375;28;20346;-71
2022/09/12 08:32:00;;;;;;;5.05;4.28;;;;;;;19.05;49.33;94769.78;5008978;28;20230;-68
2022/09/12 08:34:26;;;;;;;3.85;3.50;;;;;;;19.03;49.18;94771.00;5010909;28;20858;-69
2022/09/12 08:36:53;;;;;;;3.47;3.28;;;;;;;19.22;48.46;94771.97;5010669;28;20207;-65
2022/09/12 08:39:19;;;;;;;4.30;4.00;;;;;;;19.24;48.61;94762.72;5008160;28;20207;-71
2022/09/12 08:41:47;;;;;;;3.55;3.25;;;;;;;19.06;48.25;94779.44;5006891;28;20247;-70
2022/09/12 08:44:45;;;;;;;3.67;3.38;;;;;;;19.17;48.53;94770.78;5008877;28;20226;-69
2022/09/12 08:47:25;;;;;;;3.90;3.30;;;;;;;19.14;48.01;94778.38;4950669;28;20303;-71
2022/09/12 08:50:08;;;;;;;3.45;3.25;;;;;;;19.31;48.22;94771.53;4942649;28;20252;-71
2022/09/12 08:52:50;;;;;;;6.78;3.55;;;;;;;19.51;47.72;94767.94;4957387;28;20227;-70
2022/09/12 08:55:39;;;;;;;3.40;3.15;;;;;;;19.77;46.40;94777.69;4967893;28;20350;-71
2022/09/12 08:58:16;;;;;;;3.58;3.08;;;;;;;19.84;46.25;94762.47;4948181;28;20231;-66
2022/09/12 09:00:47;;;;;;;3.78;3.55;;;;;;;20.17;45.62;94746.19;4952139;28;20791;-68
2022/09/12 09:03:39;;;;;;;3.80;3.50;;;;;;;20.40;44.94;94766.16;4966418;28;20764;-66
2022/09/12 09:06:35;;;;;;;5.60;3.88;;;;;;;20.25;45.13;94745.13;4949696;28;20224;-65
2022/09/12 09:09:11;;;;;;;3.83;3.53;;;;;;;20.03;45.41;94763.34;4965909;28;20236;-71
2022/09/12 09:12:01;;;;;;;4.43;3.88;;;;;;;20.16;44.44;94759.78;4954298;28;20235;-70
2022/09/12 09:14:49;;;;;;;3.70;3.40;;;;;;;20.15;43.63;94764.28;4949619;28;20230;-72
2022/09/12 09:17:26;;;;;;;3.65;3.45;;;;;;;19.93;43.35;94741.66;4912676;29;20337;-66
2022/09/12 09:20:15;;;;;;;4.18;3.88;;;;;;;19.95;43.95;94745.75;4911121;29;20236;-69
2022/09/12 09:22:53;;;;;;;5.05;3.80;;;;;;;20.02;44.60;94761.69;4836172;29;20258;-69
2022/09/12 09:25:49;;;;;;;4.28;3.95;;;;;;;19.86;45.14;94755.06;4872847;29;20295;-71
2022/09/12 09:28:38;;;;;;;4.60;4.30;;;;;;;19.72;45.10;94746.31;4874569;29;20269;-72
2022/09/12 09:31:03;;;;;;;4.55;4.15;;;;;;;19.70;45.41;94742.22;4874376;29;20247;-72
2022/09/12 09:33:33;;;;;;;4.55;4.25;;;;;;;19.92;45.07;94745.38;4874965;29;20227;-72
2022/09/12 09:36:07;;;;;;;4.38;4.07;;;;;;;19.73;45.86;94750.63;4858947;29;20363;-69
2022/09/12 09:38:42;;;;;;;4.38;4.00;;;;;;;19.49;45.99;94735.38;4859205;29;20922;-66
2022/09/12 09:41:32;;;;;;;4.22;3.92;;;;;;;19.73;46.02;94736.47;4857862;29;20290;-70
2022/09/12 09:43:59;;;;;;;4.22;4.00;;;;;;;19.82;45.17;94733.31;4871186;29;20239;-66
2022/09/12 09:46:25;;;;;;;4.07;3.78;;;;;;;19.89;45.48;94732.44;4874787;29;20299;-71
2022/09/12 09:48:52;;;;;;;4.03;3.72;;;;;;;20.18;44.00;94725.66;4858009;29;20597;-72
2022/09/12 09:51:25;;;;;;;5.18;3.50;;;;;;;20.20;43.45;94726.25;4874076;29;20842;-69
2022/09/12 09:54:22;;;;;;;3.80;3.50;;;;;;;19.96;44.56;94726.03;4894198;29;20384;-69
2022/09/12 09:56:48;;;;;;;4.03;3.63;;;;;;;19.93;43.91;94731.00;4835924;29;20233;-72
2022/09/12 09:59:28;;;;;;;3.85;3.55;;;;;;;19.80;44.80;94718.56;4871476;29;20293;-71
2022/09/12 10:01:56;;;;;;;3.83;3.63;;;;;;;19.77;44.43;94733.16;4926738;29;20373;-73
2022/09/12 10:04:57;;;;;;;5.47;3.58;;;;;;;19.80;44.61;94711.38;4906727;29;20229;-72
2022/09/12 10:07:25;;;;;;;3.55;3.35;;;;;;;20.04;44.07;94714.28;4910517;29;20233;-70
2022/09/12 10:10:15;;;;;;;3.40;3.20;;;;;;;20.16;43.58;94723.22;4904301;29;20208;-70
2022/09/12 10:12:40;;;;;;;3.88;3.60;;;;;;;20.12;43.85;94716.66;4932554;29;20217;-70
2022/09/12 10:15:18;;;;;;;3.90;3.70;;;;;;;20.24;44.00;94716.78;4898707;29;20221;-71
2022/09/12 10:17:46;;;;;;;4.15;3.80;;;;;;;20.55;43.41;94707.88;4907203;29;20229;-70
2022/09/12 10:20:30;;;;;;;4.40;4.00;;;;;;;20.72;42.85;94702.78;4909506;29;20224;-66
2022/09/12 10:22:58;;;;;;;4.05;3.65;;;;;;;20.76;42.66;94711.97;4913070;29;20239;-65
2022/09/12 10:25:25;;;;;;;4.40;4.00;;;;;;;20.65;42.76;94705.53;4928811;29;20711;-67
2022/09/12 10:27:56;;;;;;;3.88;3.63;;;;;;;20.94;42.36;94719.19;4903904;29;20236;-69
2022/09/12 10:30:27;;;;;;;4.45;4.15;;;;;;;21.07;42.27;94705.66;4926934;29;20206;-69
2022/09/12 10:32:56;;;;;;;4.93;4.47;;;;;;;21.42;41.88;94706.91;4926172;28;21028;-69
2022/09/12 10:35:22;;;;;;;5.47;5.07;;;;;;;21.48;42.03;94706.00;5003369;28;20223;-70
2022/09/12 10:38:03;;;;;;;4.88;4.47;;;;;;;21.46;41.60;94703.53;5001109;28;20234;-69
2022/09/12 10:40:37;;;;;;;4.88;4.57;;;;;;;21.37;41.55;94707.56;5008820;28;20707;-70
2022/09/12 10:43:26;;;;;;;4.90;4.60;;;;;;;21.74;41.10;94702.13;5003606;28;20233;-72
2022/09/12 10:45:56;;;;;;;4.50;4.20;;;;;;;21.86;39.36;94702.97;5001465;28;20257;-71
2022/09/12 10:48:22;;;;;;;4.07;3.78;;;;;;;21.86;39.08;94700.28;5008862;28;20203;-69
2022/09/12 10:50:47;;;;;;;4.05;3.63;;;;;;;22.18;37.95;94713.38;5002411;28;20229;-65
2022/09/12 10:53:21;;;;;;;3.70;3.35;;;;;;;22.20;37.59;94711.31;5022146;28;20223;-66
2022/09/12 10:56:30;;;;;;;4.20;3.90;;;;;;;22.16;37.12;94720.81;5007170;28;20237;-71
2022/09/12 10:59:21;;;;;;;4.18;3.97;;;;;;;22.34;37.35;94709.22;4945105;28;20236;-73
2022/09/12 11:01:59;;;;;;;4.30;3.63;;;;;;;22.20;36.53;94717.47;4949853;28;20243;-71
2022/09/12 11:04:46;;;;;;;4.00;3.70;;;;;;;22.60;36.58;94697.22;4971965;28;20231;-70
2022/09/12 11:07:33;;;;;;;4.75;4.35;;;;;;;22.97;36.46;94705.03;4973085;28;20647;-71
2022/09/12 11:10:10;;;;;;;3.97;3.78;;;;;;;22.43;37.34;94707.84;4977373;28;20223;-69
2022/09/12 11:12:47;;;;;;;4.28;3.92;;;;;;;22.90;36.98;94726.56;4972092;28;20212;-69
2022/09/12 11:15:25;;;;;;;4.45;4.15;;;;;;;22.66;37.02;94731.13;4955711;28;20283;-71
2022/09/12 11:17:53;;;;;;;4.35;4.03;;;;;;;22.24;37.56;94707.97;4968695;28;20223;-72
2022/09/12 11:20:27;;;;;;;4.78;4.47;;;;;;;22.65;37.50;94713.44;4975159;28;20231;-66
2022/09/12 11:23:04;;;;;;;4.45;4.15;;;;;;;22.57;36.74;94717.28;4969050;28;20223;-71
2022/09/12 11:25:43;;;;;;;4.35;4.03;;;;;;;22.83;36.57;94699.88;4966125;28;20870;-69
2022/09/12 11:28:36;;;;;;;4.53;4.22;;;;;;;23.49;35.32;94713.03;4967044;28;20240;-72
2022/09/12 11:31:31;;;;;;;4.05;3.75;;;;;;;23.46;35.03;94708.94;4955535;28;20352;-65
2022/09/12 11:33:59;;;;;;;4.10;3.80;;;;;;;23.23;35.44;94709.03;4948599;28;20251;-70
2022/09/12 11:36:59;;;;;;;4.32;4.00;;;;;;;23.09;35.94;94709.31;4970137;28;20205;-68
2022/09/12 11:39:38;;;;;;;4.18;3.88;;;;;;;23.02;35.44;94714.00;4985986;28;20215;-70
2022/09/12 11:42:11;;;;;;;4.28;3.97;;;;;;;22.79;35.91;94714.81;4988635;28;20215;-65
2022/09/12 11:44:43;;;;;;;4.50;4.10;;;;;;;22.98;35.99;94706.66;4991245;28;20267;-66
2022/09/12 11:47:12;;;;;;;4.45;4.15;;;;;;;23.30;35.25;94707.03;4991208;28;20231;-71
2022/09/12 11:49:48;;;;;;;5.20;4.80;;;;;;;23.83;35.15;94702.41;4990824;28;20277;-71
2022/09/12 11:52:28;;;;;;;4.85;4.55;;;;;;;23.60;35.25;94728.25;4983751;28;20313;-71
2022/09/12 11:55:04;;;;;;;4.32;4.13;;;;;;;23.19;36.15;94715.94;5003077;28;20294;-71
2022/09/12 11:57:40;;;;;;;4.78;4.38;;;;;;;23.43;35.79;94716.66;4983416;28;20266;-70